Meath Environmental Platform

Observations for Trim Market St

Time AQI Temp °C Hum % Pres Pa CO μg/m³ H₂S μg/m³ NO μg/m³ NO₂ μg/m³ O₃ μg/m³ SO₂ μg/m³ PM1 μg/m³ PM2.5 μg/m³ PM10 μg/m³
Tuesday 11 August 2026
12:39 2 39.4 18 66,935 0 0 0.12 15.28 90.55 4.09 1.43 4.37 4.81
12:28 2 39.9 18 66,984 0 0 0.01 15.04 113.64 4.15 0.71 3.81 4.19
12:27 2 39.9 19 67,009 0 0 0.01 17.1 132.45 3.13 0 3.24 3.56
12:26 2 40 19 67,009 0 0 0 16.41 77.3 2.53 0 3.23 3.55
12:25 2 40 19 67,015 0 0 0 12.7 76.61 5.15 0 3.23 3.55
12:24 2 39.9 18 67,015 0 0 0.01 15.04 96.24 3.96 0 3.81 4.19
12:23 2 39.9 18 67,015 0 0 0 14.96 105.89 3.65 0 3.24 3.57
12:22 2 39.9 19 67,013 0 0 0 14.91 133.51 3.58 0 3.79 4.17
12:21 2 39.9 19 67,015 0 0 0 14.89 95.88 4.64 0 3.79 4.16
12:20 2 39.8 19 67,011 0 0 0.04 14.93 123.42 4.23 0 3.23 3.55
12:19 2 39.8 19 67,011 0 0 0.03 14.85 134.18 3.51 0 3.22 3.55
12:18 2 39.8 20 67,013 0 0 0 14.71 119.22 3.91 0 3.2 3.52
12:17 2 39.7 19 67,013 0 0 0.05 14.98 101.28 4.23 0 3.79 4.17
12:16 2 39.7 18 67,017 0 0 0.02 15.05 140.97 4.71 0.71 3.8 4.18
12:14 2 39.7 18 67,021 0 0 0 13.17 95.14 5.16 0 3.24 3.57
12:12 2 39.7 19 67,039 0 0 0 14.61 87.54 3.89 0 3.79 4.17
12:11 2 39.8 18 67,025 0 0 0 15.02 97.79 3.72 0 3.25 3.57
12:08 2 40 19 67,033 0 0 0 12.41 83.77 4.59 0 3.79 4.17
12:04 2 40.1 18 67,061 0 0 0 15.37 101.56 3.86 0 3.81 4.19
12:02 2 40.4 18 67,080 0 0 0 14.58 105.2 4.45 0 3.82 4.2